Time;durP1;ratioP1;P1;durP2;ratioP2;P2;SDS_P1;SDS_P2;PMS_P1;PMS_P2;Temp;Humidity;BMP_temperature;BMP_pressure;BME280_temperature;BME280_humidity;BME280_pressure;Samples;Min_cycle;Max_cycle;Signal;HPM_P1;HPM_P2
2023/10/30 00:00:31;;;;;;;6.10;2.90;;;20.40;73.80;;;;;;5073446;28;20103;-58
2023/10/30 00:02:57;;;;;;;8.68;3.45;;;20.30;73.70;;;;;;5073139;28;20506;-58
2023/10/30 00:05:22;;;;;;;10.30;3.50;;;20.30;73.70;;;;;;5072899;28;20035;-56
2023/10/30 00:07:48;;;;;;;13.50;3.90;;;20.30;73.80;;;;;;5072645;28;20032;-52
2023/10/30 00:10:14;;;;;;;10.13;3.58;;;20.30;73.70;;;;;;5072470;28;20039;-58
2023/10/30 00:12:40;;;;;;;10.25;3.63;;;20.30;74.00;;;;;;5072589;28;20467;-58
2023/10/30 00:15:06;;;;;;;7.53;3.72;;;20.30;74.00;;;;;;5071660;28;20078;-59
2023/10/30 00:17:32;;;;;;;8.82;3.13;;;20.30;74.10;;;;;;5072356;28;20025;-55
2023/10/30 00:19:59;;;;;;;6.85;3.20;;;20.30;73.60;;;;;;5071637;28;20525;-59
2023/10/30 00:22:25;;;;;;;7.18;3.13;;;20.30;73.90;;;;;;5072200;28;20082;-58
2023/10/30 00:24:51;;;;;;;9.00;3.00;;;20.30;73.80;;;;;;5072676;28;20456;-58
2023/10/30 00:27:17;;;;;;;12.07;3.58;;;20.30;73.60;;;;;;5072908;28;20099;-59
2023/10/30 00:29:42;;;;;;;8.15;3.40;;;20.30;73.90;;;;;;5072044;28;20060;-58
2023/10/30 00:32:08;;;;;;;8.30;3.10;;;20.30;74.20;;;;;;5073061;28;20021;-59
2023/10/30 00:34:35;;;;;;;7.80;3.40;;;20.30;74.60;;;;;;5073061;28;20023;-58
2023/10/30 00:37:01;;;;;;;7.25;3.25;;;20.30;74.00;;;;;;5072185;28;20078;-59
2023/10/30 00:39:30;;;;;;;9.32;3.35;;;20.30;74.20;;;;;;5072059;28;20373;-59
2023/10/30 00:41:56;;;;;;;8.35;3.15;;;20.30;74.30;;;;;;5072010;28;20036;-58
2023/10/30 00:44:21;;;;;;;7.72;3.10;;;20.30;74.40;;;;;;5072932;28;20024;-59
2023/10/30 00:46:48;;;;;;;6.32;2.80;;;20.30;74.70;;;;;;5072807;28;20184;-59
2023/10/30 00:49:14;;;;;;;6.28;2.65;;;20.30;74.70;;;;;;5071926;28;20098;-59
2023/10/30 00:51:40;;;;;;;7.50;3.20;;;20.30;74.80;;;;;;5070569;28;20471;-59
2023/10/30 00:54:06;;;;;;;8.43;3.00;;;20.30;74.70;;;;;;5070712;28;20039;-59
2023/10/30 00:56:31;;;;;;;8.82;3.42;;;20.30;74.40;;;;;;5070348;28;20028;-59
2023/10/30 00:58:57;;;;;;;7.70;2.70;;;20.30;74.70;;;;;;5070391;28;20399;-58
2023/10/30 01:01:25;;;;;;;6.72;2.88;;;20.30;74.70;;;;;;5071390;28;20159;-58
2023/10/30 01:03:50;;;;;;;7.18;2.90;;;20.30;74.80;;;;;;5071748;28;20076;-59
2023/10/30 01:06:16;;;;;;;7.50;2.90;;;20.30;74.70;;;;;;5072354;28;20044;-56
2023/10/30 01:08:42;;;;;;;6.15;3.03;;;20.30;74.70;;;;;;5071560;28;20052;-58
2023/10/30 01:11:09;;;;;;;8.05;2.55;;;20.30;75.10;;;;;;5070198;28;20052;-58
2023/10/30 01:13:36;;;;;;;6.75;2.65;;;20.30;74.70;;;;;;5070572;28;20020;-59
2023/10/30 01:16:03;;;;;;;6.80;2.75;;;20.30;74.10;;;;;;5070084;28;20025;-59
2023/10/30 01:18:29;;;;;;;6.07;2.80;;;20.30;74.60;;;;;;5071357;28;20047;-59
2023/10/30 01:20:55;;;;;;;6.85;3.13;;;20.30;74.70;;;;;;5072193;28;20032;-58
2023/10/30 01:23:21;;;;;;;5.47;2.88;;;20.20;75.00;;;;;;5068182;28;20024;-59
2023/10/30 01:25:47;;;;;;;7.55;3.05;;;20.20;74.50;;;;;;5070006;28;20035;-59
2023/10/30 01:28:14;;;;;;;5.72;2.83;;;20.20;74.70;;;;;;5071244;28;20444;-59
2023/10/30 01:30:40;;;;;;;6.00;2.45;;;20.20;74.60;;;;;;5070635;28;20549;-58
2023/10/30 01:33:06;;;;;;;6.90;2.97;;;20.20;74.30;;;;;;5070919;28;20033;-58
2023/10/30 01:35:32;;;;;;;4.70;2.35;;;20.20;74.20;;;;;;5069566;28;20024;-58
2023/10/30 01:37:58;;;;;;;4.95;2.25;;;20.20;74.80;;;;;;5070858;28;20021;-59
2023/10/30 01:40:25;;;;;;;5.43;2.58;;;20.20;74.50;;;;;;5071651;28;20039;-59
2023/10/30 01:42:51;;;;;;;7.45;2.67;;;20.20;74.90;;;;;;5069331;28;20052;-58
2023/10/30 01:45:17;;;;;;;4.88;2.53;;;20.30;74.50;;;;;;5069802;28;20083;-56
2023/10/30 01:47:43;;;;;;;5.53;2.40;;;20.30;74.50;;;;;;5069816;28;20067;-59
2023/10/30 01:50:10;;;;;;;5.88;2.80;;;20.30;74.50;;;;;;5071737;28;20468;-59
2023/10/30 01:52:36;;;;;;;6.53;2.65;;;20.30;74.10;;;;;;5070977;28;20028;-59
2023/10/30 01:55:03;;;;;;;5.38;2.70;;;20.20;74.40;;;;;;5069841;28;20024;-58
2023/10/30 01:57:30;;;;;;;9.65;2.75;;;20.30;73.60;;;;;;5068640;28;20027;-59
2023/10/30 01:59:56;;;;;;;5.03;2.35;;;20.30;73.60;;;;;;5069511;28;20096;-58
2023/10/30 02:02:25;;;;;;;4.50;2.75;;;20.30;73.20;;;;;;5070187;28;20406;-56
2023/10/30 02:04:51;;;;;;;5.22;2.30;;;20.30;73.60;;;;;;5071630;28;20021;-57
2023/10/30 02:07:17;;;;;;;6.20;2.90;;;20.30;74.00;;;;;;5067026;28;20059;-59
2023/10/30 02:09:43;;;;;;;4.10;2.30;;;20.30;73.90;;;;;;5071270;28;20055;-56
2023/10/30 02:12:09;;;;;;;5.95;2.33;;;20.30;75.00;;;;;;5070658;28;20029;-58
2023/10/30 02:14:35;;;;;;;4.07;2.40;;;20.30;74.30;;;;;;5069703;28;20020;-58
2023/10/30 02:17:01;;;;;;;5.57;2.53;;;20.30;74.40;;;;;;5069475;28;20031;-58
2023/10/30 02:19:27;;;;;;;6.28;2.90;;;20.30;73.90;;;;;;5068263;28;20502;-58
2023/10/30 02:21:55;;;;;;;12.68;2.30;;;20.30;74.10;;;;;;5070214;28;20077;-54
2023/10/30 02:24:21;;;;;;;5.35;2.45;;;20.30;74.70;;;;;;5069229;28;20020;-56
2023/10/30 02:26:50;;;;;;;6.40;2.63;;;20.30;74.20;;;;;;5070244;28;20475;-53
2023/10/30 02:29:17;;;;;;;7.03;2.30;;;20.20;75.00;;;;;;5069616;28;20024;-54
2023/10/30 02:31:43;;;;;;;3.88;2.53;;;20.20;73.70;;;;;;5069123;28;20086;-57
2023/10/30 02:34:10;;;;;;;5.63;2.30;;;20.20;74.00;;;;;;5070469;28;20110;-59
2023/10/30 02:36:36;;;;;;;8.27;2.70;;;20.20;73.40;;;;;;5052892;28;20032;-58
2023/10/30 02:39:03;;;;;;;6.00;2.70;;;20.20;73.70;;;;;;5068305;28;20029;-58
2023/10/30 02:41:31;;;;;;;6.53;2.70;;;20.20;74.40;;;;;;5107490;22;20380;-48
2023/10/30 02:44:01;;;;;;;4.82;2.50;;;20.20;75.20;;;;;;5087192;28;20034;-50
2023/10/30 02:46:27;;;;;;;3.55;2.13;;;20.20;74.90;;;;;;5083213;28;20056;-56
2023/10/30 02:48:53;;;;;;;6.45;2.45;;;20.20;73.60;;;;;;5099589;28;20024;-53
2023/10/30 02:51:19;;;;;;;5.38;2.70;;;20.20;74.50;;;;;;5085234;28;20028;-48
2023/10/30 02:53:45;;;;;;;5.13;3.13;;;20.20;74.10;;;;;;5065541;28;20395;-50
2023/10/30 02:56:11;;;;;;;8.45;2.35;;;20.20;75.00;;;;;;5076812;28;20024;-48
2023/10/30 02:58:37;;;;;;;4.50;2.33;;;20.20;74.70;;;;;;5079743;28;20038;-50
2023/10/30 03:01:03;;;;;;;6.05;2.38;;;20.20;74.60;;;;;;5070741;28;20035;-50
2023/10/30 03:03:29;;;;;;;5.65;2.50;;;20.20;75.00;;;;;;5069898;28;20021;-52
2023/10/30 03:05:56;;;;;;;4.15;2.22;;;20.20;74.10;;;;;;5068799;28;20029;-48
2023/10/30 03:08:25;;;;;;;4.97;2.55;;;20.20;74.20;;;;;;5071012;28;20457;-48
2023/10/30 03:10:51;;;;;;;4.68;2.50;;;20.10;74.80;;;;;;5081586;28;20060;-50
2023/10/30 03:13:16;;;;;;;5.78;2.03;;;20.20;74.40;;;;;;5079066;28;20052;-50
2023/10/30 03:15:45;;;;;;;4.65;2.20;;;20.10;74.20;;;;;;5067693;28;20032;-51
2023/10/30 03:18:11;;;;;;;3.03;2.10;;;20.20;73.60;;;;;;5071757;28;20380;-50
2023/10/30 03:20:37;;;;;;;3.60;2.22;;;20.20;74.40;;;;;;5080080;28;20031;-51
2023/10/30 03:23:03;;;;;;;7.70;2.28;;;20.20;74.00;;;;;;5076772;28;20028;-49
2023/10/30 03:25:29;;;;;;;8.43;2.38;;;20.20;74.20;;;;;;5067123;28;20032;-51
2023/10/30 03:27:55;;;;;;;4.60;2.35;;;20.10;73.80;;;;;;5067955;28;20044;-48
2023/10/30 03:30:21;;;;;;;4.60;2.25;;;20.10;74.00;;;;;;5070737;28;20032;-50
2023/10/30 03:32:47;;;;;;;5.53;2.00;;;20.10;74.10;;;;;;5071448;28;20207;-48
2023/10/30 03:35:13;;;;;;;4.53;1.90;;;20.10;74.00;;;;;;5073185;28;20016;-48
2023/10/30 03:37:38;;;;;;;3.90;2.30;;;20.10;74.00;;;;;;5075189;28;20020;-51
2023/10/30 03:40:05;;;;;;;4.70;2.30;;;20.10;74.60;;;;;;5079526;28;20552;-54
2023/10/30 03:42:30;;;;;;;3.45;1.95;;;20.10;74.80;;;;;;5065814;28;20037;-48
2023/10/30 03:44:56;;;;;;;6.50;2.00;;;20.10;74.00;;;;;;5081041;28;20514;-51
2023/10/30 03:47:22;;;;;;;5.32;2.22;;;20.10;74.00;;;;;;5071977;28;20020;-50
2023/10/30 03:49:48;;;;;;;4.03;2.22;;;20.10;74.80;;;;;;5073476;28;20067;-50
2023/10/30 03:52:14;;;;;;;3.78;2.00;;;20.10;74.80;;;;;;5082332;28;20463;-51
2023/10/30 03:54:39;;;;;;;5.15;2.10;;;20.10;73.80;;;;;;5080599;28;20043;-52
2023/10/30 03:57:08;;;;;;;6.75;2.22;;;20.10;74.80;;;;;;5075585;28;20052;-49
2023/10/30 03:59:35;;;;;;;4.05;2.10;;;20.10;73.80;;;;;;5070073;28;20064;-50
2023/10/30 04:02:01;;;;;;;4.65;2.03;;;20.10;74.50;;;;;;5073019;28;20119;-48
2023/10/30 04:04:27;;;;;;;6.63;2.42;;;20.10;74.20;;;;;;5056966;28;20104;-49
2023/10/30 04:06:53;;;;;;;3.95;2.10;;;20.10;74.20;;;;;;5074316;28;20074;-48
2023/10/30 04:09:19;;;;;;;4.72;2.05;;;20.10;74.40;;;;;;5072242;28;20016;-51
2023/10/30 04:11:48;;;;;;;5.25;2.03;;;20.10;73.90;;;;;;5075550;28;20506;-49
2023/10/30 04:14:14;;;;;;;2.83;2.03;;;20.10;74.00;;;;;;5085525;28;20028;-47
2023/10/30 04:16:40;;;;;;;4.45;2.13;;;20.10;74.10;;;;;;5076018;28;20032;-48
2023/10/30 04:19:06;;;;;;;4.25;2.20;;;20.10;74.40;;;;;;5073201;28;20025;-50
2023/10/30 04:21:33;;;;;;;4.68;2.13;;;20.10;73.70;;;;;;5070776;28;20024;-52
2023/10/30 04:23:58;;;;;;;3.80;1.90;;;20.10;74.10;;;;;;5075683;28;20092;-55
2023/10/30 04:26:25;;;;;;;6.70;2.33;;;20.10;73.30;;;;;;5079347;28;20037;-50
2023/10/30 04:28:51;;;;;;;5.18;2.00;;;20.10;74.10;;;;;;5072466;28;20468;-50
2023/10/30 04:31:17;;;;;;;3.53;2.03;;;20.10;73.30;;;;;;5072173;28;20070;-51
2023/10/30 04:33:42;;;;;;;5.70;2.00;;;20.10;73.60;;;;;;5073089;28;20452;-50
2023/10/30 04:36:08;;;;;;;4.25;2.10;;;20.10;73.80;;;;;;5071226;28;20103;-53
2023/10/30 04:38:34;;;;;;;8.43;2.40;;;20.20;74.00;;;;;;5070776;28;20399;-53
2023/10/30 04:41:04;;;;;;;3.33;2.00;;;20.10;74.40;;;;;;5071854;28;20495;-54
2023/10/30 04:43:32;;;;;;;6.97;2.60;;;20.20;74.10;;;;;;5081682;28;20039;-52
2023/10/30 04:45:57;;;;;;;6.85;2.42;;;20.20;74.80;;;;;;5081434;28;20076;-53
2023/10/30 04:48:23;;;;;;;7.47;2.40;;;20.20;74.60;;;;;;5082600;28;20107;-54
2023/10/30 04:50:49;;;;;;;7.47;2.45;;;20.20;74.50;;;;;;5070181;28;20028;-50
2023/10/30 04:53:15;;;;;;;24.38;2.97;;;20.20;75.50;;;;;;5080631;28;20027;-48
2023/10/30 04:55:41;;;;;;;7.00;2.40;;;20.20;75.10;;;;;;5076984;28;20037;-52
2023/10/30 04:58:07;;;;;;;13.15;2.50;;;20.20;74.40;;;;;;5079916;28;20024;-54
2023/10/30 05:00:35;;;;;;;7.30;2.40;;;20.20;74.50;;;;;;5081191;28;20016;-50
2023/10/30 05:03:01;;;;;;;6.47;2.70;;;20.20;74.50;;;;;;5077980;28;20522;-51
2023/10/30 05:05:26;;;;;;;10.05;2.35;;;20.20;74.10;;;;;;5071975;28;20032;-53
2023/10/30 05:07:52;;;;;;;6.72;2.33;;;20.20;74.70;;;;;;5075726;28;20034;-48
2023/10/30 05:10:18;;;;;;;6.32;2.20;;;20.20;74.20;;;;;;5075742;28;20441;-47
2023/10/30 05:12:44;;;;;;;5.00;2.47;;;20.20;74.80;;;;;;5083782;28;20419;-53
2023/10/30 05:15:09;;;;;;;7.45;2.40;;;20.20;74.80;;;;;;5084503;28;20383;-50
2023/10/30 05:17:38;;;;;;;5.30;2.47;;;20.20;74.80;;;;;;5079872;28;20551;-51
2023/10/30 05:20:05;;;;;;;3.83;2.30;;;20.20;74.80;;;;;;5080350;28;20040;-49
2023/10/30 05:22:32;;;;;;;5.43;2.50;;;20.20;75.30;;;;;;5081606;28;20028;-51
2023/10/30 05:24:58;;;;;;;4.80;2.28;;;20.20;74.10;;;;;;5087246;28;20020;-51
2023/10/30 05:27:27;;;;;;;7.97;2.67;;;20.20;74.80;;;;;;5077582;28;20020;-51
2023/10/30 05:29:53;;;;;;;5.43;2.63;;;20.20;75.30;;;;;;5070855;28;20079;-56
2023/10/30 05:32:20;;;;;;;6.30;2.65;;;20.20;75.30;;;;;;5074685;28;20042;-51
2023/10/30 05:34:48;;;;;;;3.72;2.40;;;20.20;75.40;;;;;;5076057;28;20016;-51
2023/10/30 05:37:15;;;;;;;4.43;2.47;;;20.20;74.80;;;;;;5071569;28;20024;-51
2023/10/30 05:39:42;;;;;;;7.15;2.78;;;20.20;74.30;;;;;;5070912;28;20028;-51
2023/10/30 05:42:08;;;;;;;6.03;2.80;;;20.20;74.40;;;;;;5071832;28;20032;-52
2023/10/30 05:44:33;;;;;;;6.32;2.58;;;20.20;74.40;;;;;;5071720;28;20039;-48
2023/10/30 05:46:59;;;;;;;4.00;2.53;;;20.20;74.40;;;;;;5079825;28;20525;-54
2023/10/30 05:49:28;;;;;;;5.68;2.70;;;20.20;74.00;;;;;;5074627;28;20420;-51
2023/10/30 05:51:55;;;;;;;5.50;2.57;;;20.20;74.60;;;;;;5075346;28;20214;-51
2023/10/30 05:54:22;;;;;;;7.38;2.95;;;20.20;74.60;;;;;;5069673;28;20861;-50
2023/10/30 05:56:48;;;;;;;5.50;3.05;;;20.20;74.70;;;;;;5085219;28;20087;-51
2023/10/30 05:59:14;;;;;;;4.60;2.50;;;20.20;74.60;;;;;;5069574;28;20022;-52
2023/10/30 06:01:40;;;;;;;5.63;2.83;;;20.20;73.90;;;;;;5069818;28;20091;-53
2023/10/30 06:04:06;;;;;;;6.40;3.00;;;20.20;74.40;;;;;;5078757;28;20052;-51
2023/10/30 06:06:32;;;;;;;7.32;2.55;;;20.20;74.70;;;;;;5071015;28;20024;-55
2023/10/30 06:08:58;;;;;;;4.82;2.58;;;20.20;73.50;;;;;;5076176;28;20024;-54
2023/10/30 06:11:23;;;;;;;4.88;2.63;;;20.10;74.10;;;;;;5070915;28;20020;-53
2023/10/30 06:13:49;;;;;;;6.03;2.78;;;20.20;73.70;;;;;;5074283;28;20025;-48
2023/10/30 06:16:18;;;;;;;4.07;2.50;;;20.20;73.70;;;;;;5081161;28;20020;-54
2023/10/30 06:18:45;;;;;;;5.82;2.78;;;20.10;73.60;;;;;;5083214;28;20043;-50
2023/10/30 06:21:17;;;;;;;5.88;3.30;;;20.10;73.50;;;;;;5072184;28;20027;-51
2023/10/30 06:23:43;;;;;;;5.75;2.60;;;20.20;73.50;;;;;;5069384;28;20491;-52
2023/10/30 06:26:10;;;;;;;6.93;2.92;;;20.20;73.50;;;;;;5078493;28;20491;-52
2023/10/30 06:28:37;;;;;;;8.40;2.80;;;20.20;73.80;;;;;;5078077;28;20100;-51
2023/10/30 06:31:04;;;;;;;4.82;2.70;;;20.20;75.00;;;;;;5070115;28;20024;-50
2023/10/30 06:33:33;;;;;;;4.13;2.55;;;20.20;73.70;;;;;;5079075;28;20078;-51
2023/10/30 06:36:00;;;;;;;9.75;3.00;;;20.20;73.50;;;;;;5070518;28;20024;-50
2023/10/30 06:38:27;;;;;;;5.07;2.70;;;20.20;73.50;;;;;;5069454;28;20025;-51
2023/10/30 06:40:54;;;;;;;5.65;2.97;;;20.20;73.60;;;;;;5074223;28;20024;-54
2023/10/30 06:43:20;;;;;;;7.25;3.30;;;20.10;73.80;;;;;;5083029;28;20030;-47
2023/10/30 06:45:45;;;;;;;7.60;2.90;;;20.20;73.80;;;;;;5077603;28;20028;-51
2023/10/30 06:48:11;;;;;;;6.32;3.08;;;20.20;74.10;;;;;;5074524;28;20023;-50
2023/10/30 06:50:37;;;;;;;7.25;3.13;;;20.20;73.20;;;;;;5073650;28;20024;-49
2023/10/30 06:53:02;;;;;;;7.72;3.08;;;20.20;73.90;;;;;;5078482;28;20062;-48
2023/10/30 06:55:28;;;;;;;6.20;3.15;;;20.20;73.60;;;;;;5078599;28;20549;-54
2023/10/30 06:57:54;;;;;;;6.40;3.22;;;20.20;73.60;;;;;;5080927;28;20054;-51
2023/10/30 07:00:20;;;;;;;7.78;3.25;;;20.20;73.20;;;;;;5069339;28;20032;-48
2023/10/30 07:02:46;;;;;;;5.47;3.05;;;20.20;73.40;;;;;;5072930;28;20055;-50
2023/10/30 07:05:12;;;;;;;7.30;3.25;;;20.20;72.80;;;;;;5081943;28;20058;-48
2023/10/30 07:07:37;;;;;;;7.55;3.13;;;20.20;73.10;;;;;;5071750;28;20017;-55
2023/10/30 07:10:04;;;;;;;5.15;2.70;;;20.20;72.60;;;;;;5073770;28;20024;-51
2023/10/30 07:12:29;;;;;;;8.07;3.10;;;20.20;72.70;;;;;;5073526;28;20031;-54
2023/10/30 07:14:55;;;;;;;6.40;2.97;;;20.20;73.90;;;;;;5073011;28;20028;-51
2023/10/30 07:17:21;;;;;;;8.90;3.17;;;20.20;72.50;;;;;;5070343;28;20027;-51
2023/10/30 07:19:48;;;;;;;6.00;3.10;;;20.20;73.40;;;;;;5073707;28;20564;-54
2023/10/30 07:22:14;;;;;;;9.15;3.38;;;20.20;72.80;;;;;;5073360;28;20406;-56
2023/10/30 07:24:40;;;;;;;5.38;3.30;;;20.20;73.50;;;;;;5074354;28;20031;-53
2023/10/30 07:27:06;;;;;;;8.85;3.05;;;20.20;73.40;;;;;;5074079;28;20029;-56
2023/10/30 07:29:32;;;;;;;8.25;3.10;;;20.20;72.70;;;;;;5071675;28;20021;-48
2023/10/30 07:31:58;;;;;;;7.45;3.10;;;20.20;73.10;;;;;;5071894;28;20474;-50
2023/10/30 07:34:24;;;;;;;10.55;3.17;;;20.20;72.40;;;;;;5074113;28;20032;-50
2023/10/30 07:36:50;;;;;;;8.18;3.35;;;20.20;73.10;;;;;;5071112;28;20028;-51
2023/10/30 07:39:16;;;;;;;6.32;2.72;;;20.30;73.00;;;;;;5071451;28;20028;-51
2023/10/30 07:41:42;;;;;;;7.00;3.38;;;20.30;74.00;;;;;;5069106;28;20024;-54
2023/10/30 07:44:09;;;;;;;4.47;2.80;;;20.30;73.50;;;;;;5067799;28;20040;-51
2023/10/30 07:46:35;;;;;;;9.25;3.33;;;20.30;73.80;;;;;;5069804;28;20028;-48
2023/10/30 07:49:06;;;;;;;5.90;2.72;;;20.30;75.70;;;;;;5076517;28;20027;-48
2023/10/30 07:51:32;;;;;;;11.75;3.22;;;20.30;73.60;;;;;;5071718;28;20073;-50
2023/10/30 07:53:59;;;;;;;7.20;3.35;;;20.30;73.90;;;;;;5073744;28;20017;-53
2023/10/30 07:56:25;;;;;;;12.32;3.45;;;20.30;73.90;;;;;;5072542;28;20060;-48
2023/10/30 07:58:50;;;;;;;12.68;3.35;;;20.30;74.70;;;;;;5075957;28;20052;-53
2023/10/30 08:01:20;;;;;;;22.15;3.70;;;20.30;74.50;;;;;;5080638;28;20476;-52
2023/10/30 08:03:46;;;;;;;9.57;3.60;;;20.40;74.80;;;;;;5094232;28;20074;-51
2023/10/30 08:06:12;;;;;;;12.52;3.33;;;20.40;75.00;;;;;;5069793;28;20029;-53
2023/10/30 08:08:39;;;;;;;7.47;3.40;;;20.40;74.40;;;;;;5072216;28;20067;-50
2023/10/30 08:11:05;;;;;;;14.10;3.67;;;20.40;74.30;;;;;;5074986;28;20012;-55
2023/10/30 08:13:31;;;;;;;11.68;3.35;;;20.40;74.60;;;;;;5082420;28;20016;-53
2023/10/30 08:15:57;;;;;;;21.92;3.17;;;20.30;74.70;;;;;;5088144;28;20024;-49
2023/10/30 08:18:23;;;;;;;32.42;4.13;;;20.40;74.20;;;;;;5072402;28;20487;-52
2023/10/30 08:20:50;;;;;;;40.42;3.75;;;20.40;74.30;;;;;;5071448;28;20017;-56
2023/10/30 08:23:15;;;;;;;21.23;3.47;;;20.50;74.70;;;;;;5080186;28;20069;-53
2023/10/30 08:25:41;;;;;;;18.85;3.40;;;20.40;75.20;;;;;;5084924;28;20032;-50
2023/10/30 08:28:07;;;;;;;9.10;3.28;;;20.40;74.40;;;;;;5081646;28;20499;-53
2023/10/30 08:30:34;;;;;;;9.38;3.55;;;20.40;74.00;;;;;;5087995;28;20028;-50
2023/10/30 08:33:03;;;;;;;16.15;3.85;;;20.30;74.10;;;;;;5086236;28;20376;-49
2023/10/30 08:35:29;;;;;;;9.13;3.60;;;20.30;74.50;;;;;;5093629;28;20053;-55
2023/10/30 08:37:57;;;;;;;16.00;3.53;;;20.30;74.10;;;;;;5087584;28;20027;-50
2023/10/30 08:40:24;;;;;;;8.75;3.55;;;20.30;74.30;;;;;;5104245;22;20048;-53
2023/10/30 08:42:49;;;;;;;10.75;3.88;;;20.30;74.30;;;;;;5064448;28;20020;-55
2023/10/30 08:45:15;;;;;;;10.38;3.20;;;20.30;74.00;;;;;;5072973;28;20028;-57
2023/10/30 08:47:41;;;;;;;7.72;3.28;;;20.30;73.70;;;;;;5071966;28;20047;-55
2023/10/30 08:50:08;;;;;;;12.55;3.60;;;20.30;74.10;;;;;;5064421;28;20016;-51
2023/10/30 08:52:34;;;;;;;16.70;3.10;;;20.20;73.80;;;;;;5064167;28;20096;-56
2023/10/30 08:55:00;;;;;;;10.70;3.70;;;20.30;74.60;;;;;;5072818;28;20025;-54
2023/10/30 08:57:26;;;;;;;12.55;3.58;;;20.30;73.90;;;;;;5072740;28;20552;-57
2023/10/30 08:59:52;;;;;;;9.38;3.20;;;20.30;74.50;;;;;;5071117;28;20399;-54
2023/10/30 09:02:17;;;;;;;12.70;3.83;;;20.30;74.20;;;;;;5063694;28;20024;-53
2023/10/30 09:04:44;;;;;;;11.35;3.38;;;20.20;74.30;;;;;;5071431;28;20028;-56
2023/10/30 09:07:10;;;;;;;8.23;3.97;;;20.30;74.70;;;;;;5072288;28;20025;-57
2023/10/30 09:09:36;;;;;;;8.60;3.58;;;20.30;74.60;;;;;;5071302;28;20422;-55
2023/10/30 09:12:01;;;;;;;12.73;3.70;;;20.30;74.20;;;;;;5072283;28;20024;-53
2023/10/30 09:14:27;;;;;;;15.63;3.70;;;20.30;74.10;;;;;;5072571;28;20024;-53
2023/10/30 09:16:53;;;;;;;11.20;3.40;;;20.30;74.40;;;;;;5072340;28;20035;-55
2023/10/30 09:19:19;;;;;;;11.88;3.63;;;20.20;73.90;;;;;;5072543;28;20391;-57
2023/10/30 09:21:45;;;;;;;8.98;3.55;;;20.20;73.90;;;;;;5062754;28;20056;-57
2023/10/30 09:24:11;;;;;;;11.73;3.72;;;20.30;73.90;;;;;;5072292;28;20129;-54
2023/10/30 09:26:37;;;;;;;9.05;3.60;;;20.30;73.80;;;;;;5071985;28;20032;-57
2023/10/30 09:29:03;;;;;;;8.63;3.53;;;20.20;73.70;;;;;;5072329;28;20597;-54
2023/10/30 09:31:30;;;;;;;7.38;3.13;;;20.30;74.00;;;;;;5069931;28;20070;-54
2023/10/30 09:33:59;;;;;;;8.63;3.20;;;20.30;74.30;;;;;;5072077;28;20028;-57
2023/10/30 09:36:25;;;;;;;13.30;3.60;;;20.30;74.20;;;;;;5071543;28;20042;-56
2023/10/30 09:38:53;;;;;;;8.88;3.33;;;20.30;74.00;;;;;;5072185;28;20520;-56
2023/10/30 09:41:19;;;;;;;9.80;3.38;;;20.30;74.30;;;;;;5071072;28;20025;-56
2023/10/30 09:43:52;;;;;;;7.65;3.20;;;20.30;73.70;;;;;;5071224;28;20051;-57
2023/10/30 09:46:21;;;;;;;11.80;3.13;;;20.30;74.30;;;;;;5071627;28;20048;-56
2023/10/30 09:48:48;;;;;;;11.55;3.38;;;20.30;73.90;;;;;;5071854;28;20484;-57
2023/10/30 09:51:19;;;;;;;9.87;3.73;;;20.30;73.60;;;;;;5070695;28;20055;-57
2023/10/30 09:53:46;;;;;;;7.47;3.30;;;20.30;73.60;;;;;;5071726;28;20637;-53
2023/10/30 09:56:13;;;;;;;14.85;3.45;;;20.30;74.40;;;;;;5071329;28;20521;-54
2023/10/30 09:58:38;;;;;;;12.20;3.25;;;20.40;74.30;;;;;;5071864;28;20032;-56
2023/10/30 10:01:05;;;;;;;13.00;3.72;;;20.40;74.40;;;;;;5071794;28;20380;-56
2023/10/30 10:03:30;;;;;;;26.50;4.32;;;20.40;74.90;;;;;;5060566;28;20048;-54
2023/10/30 10:05:57;;;;;;;19.40;4.45;;;20.50;74.30;;;;;;5070769;28;20522;-57
2023/10/30 10:08:24;;;;;;;16.02;4.30;;;20.50;74.00;;;;;;5071556;28;20035;-53
2023/10/30 10:11:00;;;;;;;15.52;3.67;;;20.50;73.80;;;;;;5071698;28;20074;-56
2023/10/30 10:13:28;;;;;;;18.08;3.38;;;20.50;74.00;;;;;;5069957;28;20012;-51
2023/10/30 10:15:55;;;;;;;20.13;3.92;;;20.50;75.80;;;;;;5063004;28;20056;-53
2023/10/30 10:18:28;;;;;;;19.77;4.38;;;20.60;76.70;;;;;;5071612;28;20033;-57
2023/10/30 10:21:00;;;;;;;15.70;3.83;;;20.60;75.70;;;;;;5071635;28;20037;-54
2023/10/30 10:23:31;;;;;;;25.13;4.70;;;20.60;76.00;;;;;;5069821;28;20100;-53
2023/10/30 10:26:14;;;;;;;14.88;3.53;;;20.60;76.60;;;;;;5063072;28;20025;-51
2023/10/30 10:28:49;;;;;;;16.77;3.55;;;20.60;75.30;;;;;;5071257;28;20059;-53
2023/10/30 10:31:17;;;;;;;21.95;3.50;;;20.50;71.10;;;;;;5071301;28;20111;-54
2023/10/30 10:33:43;;;;;;;12.57;3.03;;;20.30;68.00;;;;;;5070565;28;20476;-56
2023/10/30 10:36:11;;;;;;;9.88;2.28;;;20.30;67.50;;;;;;5071012;28;20040;-54
2023/10/30 10:38:37;;;;;;;11.75;2.53;;;20.10;65.40;;;;;;5071271;28;20039;-56
2023/10/30 10:41:04;;;;;;;11.73;2.65;;;20.10;65.00;;;;;;5071052;28;20036;-56
2023/10/30 10:43:31;;;;;;;12.90;2.95;;;20.00;64.90;;;;;;5072923;28;20036;-51
2023/10/30 10:45:57;;;;;;;10.20;2.72;;;19.90;63.40;;;;;;5064697;28;20056;-57
2023/10/30 10:48:26;;;;;;;13.38;2.80;;;19.90;64.90;;;;;;5075328;28;20028;-54
2023/10/30 10:50:54;;;;;;;15.55;2.60;;;20.00;64.80;;;;;;5075219;28;20112;-56
2023/10/30 10:53:20;;;;;;;12.43;2.40;;;20.00;66.80;;;;;;5073413;28;20017;-57
2023/10/30 10:55:50;;;;;;;11.73;2.70;;;20.10;67.90;;;;;;5074778;28;20069;-54
2023/10/30 10:58:20;;;;;;;11.63;3.03;;;20.20;68.10;;;;;;5075211;28;20093;-55
2023/10/30 11:00:53;;;;;;;18.63;4.15;;;20.20;68.40;;;;;;5075136;28;20032;-57
2023/10/30 11:03:21;;;;;;;19.90;3.70;;;20.30;68.20;;;;;;5074155;28;20025;-55
2023/10/30 11:05:53;;;;;;;23.02;3.55;;;20.30;67.60;;;;;;5069601;28;20114;-56
2023/10/30 11:08:40;;;;;;;13.40;4.20;;;20.40;68.80;;;;;;5069692;28;20021;-56
2023/10/30 11:11:22;;;;;;;19.35;3.63;;;20.40;68.30;;;;;;5074017;28;20344;-56
2023/10/30 11:14:29;;;;;;;13.75;4.10;;;20.40;68.40;;;;;;5073207;28;20480;-56
2023/10/30 11:17:02;;;;;;;14.38;3.97;;;20.40;68.80;;;;;;5066206;28;20506;-53
2023/10/30 11:19:29;;;;;;;17.38;4.30;;;20.40;68.80;;;;;;5074767;28;20032;-53
2023/10/30 11:21:55;;;;;;;14.45;4.45;;;20.40;69.60;;;;;;5074687;28;20396;-53
2023/10/30 11:24:41;;;;;;;17.80;4.90;;;20.40;69.40;;;;;;5072815;28;20029;-54
2023/10/30 11:27:25;;;;;;;14.52;3.95;;;20.50;69.30;;;;;;5074035;28;20476;-55
2023/10/30 11:30:03;;;;;;;15.45;4.05;;;20.40;69.30;;;;;;5074065;28;20024;-53
2023/10/30 11:32:32;;;;;;;13.35;4.55;;;20.50;69.60;;;;;;5074569;28;20033;-51
2023/10/30 11:34:59;;;;;;;14.25;4.43;;;20.50;69.50;;;;;;5072576;28;20500;-52
2023/10/30 11:37:27;;;;;;;21.88;4.70;;;20.50;69.40;;;;;;5073874;28;20562;-53
2023/10/30 11:39:54;;;;;;;12.40;4.60;;;20.50;69.70;;;;;;5074164;28;20054;-57
2023/10/30 11:42:22;;;;;;;12.57;4.00;;;20.50;69.80;;;;;;5073825;28;20032;-57
2023/10/30 11:44:53;;;;;;;14.70;4.28;;;20.50;70.00;;;;;;5064547;28;20401;-48
2023/10/30 11:47:23;;;;;;;18.88;4.50;;;20.50;70.50;;;;;;5066631;28;20024;-53
2023/10/30 11:49:49;;;;;;;18.92;5.07;;;20.50;70.90;;;;;;5067498;28;20395;-57
2023/10/30 11:52:15;;;;;;;19.35;4.55;;;20.50;71.10;;;;;;5064419;28;20556;-53
2023/10/30 11:54:44;;;;;;;15.98;4.88;;;20.50;70.90;;;;;;5065170;28;20024;-57
2023/10/30 11:57:11;;;;;;;22.73;5.93;;;20.50;71.00;;;;;;5074967;28;20117;-54
2023/10/30 11:59:37;;;;;;;22.70;6.00;;;20.50;71.10;;;;;;5069400;28;20361;-57
2023/10/30 12:02:05;;;;;;;16.42;5.53;;;20.60;71.40;;;;;;5072844;28;20032;-49
2023/10/30 12:04:34;;;;;;;21.27;5.63;;;20.60;71.50;;;;;;5073574;28;20055;-57
2023/10/30 12:07:00;;;;;;;16.42;5.47;;;20.60;71.50;;;;;;5079321;28;20031;-57
2023/10/30 12:09:26;;;;;;;17.77;4.70;;;20.70;72.00;;;;;;5085098;28;20049;-55
2023/10/30 12:11:53;;;;;;;19.85;5.50;;;20.60;71.10;;;;;;5068848;28;20027;-56
2023/10/30 12:14:19;;;;;;;19.95;5.60;;;20.70;71.20;;;;;;5076912;28;20017;-58
2023/10/30 12:16:50;;;;;;;18.10;5.22;;;20.60;70.70;;;;;;5074645;28;20521;-52
2023/10/30 12:19:22;;;;;;;22.20;5.43;;;20.60;71.20;;;;;;5083909;28;20043;-56
2023/10/30 12:21:48;;;;;;;11.70;3.92;;;20.60;71.30;;;;;;5072299;28;20480;-51
2023/10/30 12:24:16;;;;;;;18.77;5.10;;;20.60;70.70;;;;;;5072327;28;20070;-57
2023/10/30 12:26:42;;;;;;;12.27;4.40;;;20.60;70.40;;;;;;5074812;28;20029;-55
2023/10/30 12:29:08;;;;;;;18.85;4.32;;;20.60;70.00;;;;;;5089010;28;20020;-49
2023/10/30 12:31:37;;;;;;;15.07;3.95;;;20.60;69.70;;;;;;5068151;28;20101;-56
2023/10/30 12:34:10;;;;;;;15.23;4.03;;;20.60;69.50;;;;;;5065828;28;20020;-53
2023/10/30 12:36:39;;;;;;;11.52;3.80;;;20.60;69.40;;;;;;5061868;28;20082;-58
2023/10/30 12:39:13;;;;;;;11.77;3.75;;;20.60;69.30;;;;;;5078662;28;20025;-57
2023/10/30 12:41:39;;;;;;;11.15;3.70;;;20.60;69.10;;;;;;5070509;28;20033;-55